createdAt,value
2022-10-02T00:00:23.200Z,2.88
2022-10-02T00:02:55.282Z,2.30
2022-10-02T00:05:30.258Z,1.85
2022-10-02T00:08:03.911Z,2.08
2022-10-02T00:10:38.035Z,1.88
2022-10-02T00:13:08.781Z,1.92
2022-10-02T00:15:41.616Z,2.05
2022-10-02T00:18:13.603Z,1.90
2022-10-02T00:20:47.340Z,1.98
2022-10-02T00:23:21.801Z,2.28
2022-10-02T00:25:57.945Z,2.25
2022-10-02T00:28:29.482Z,1.67
2022-10-02T00:31:17.546Z,1.83
2022-10-02T00:33:59.163Z,1.80
2022-10-02T00:36:39.093Z,1.70
2022-10-02T00:39:20.479Z,1.52
2022-10-02T00:42:27.286Z,1.58
2022-10-02T00:45:20.869Z,1.45
2022-10-02T00:48:00.153Z,1.50
2022-10-02T00:50:37.269Z,1.60
2022-10-02T00:53:13.899Z,1.60
2022-10-02T00:56:02.840Z,1.98
2022-10-02T00:58:44.567Z,1.63
2022-10-02T01:01:17.190Z,1.83
2022-10-02T01:03:53.191Z,2.10
2022-10-02T01:06:25.012Z,1.70
2022-10-02T01:08:53.142Z,2.03
2022-10-02T01:11:24.423Z,1.90
2022-10-02T01:13:52.625Z,1.70
2022-10-02T01:16:20.878Z,1.73
2022-10-02T01:18:50.235Z,1.67
2022-10-02T01:21:24.159Z,1.25
2022-10-02T01:24:01.346Z,1.40
2022-10-02T01:26:30.755Z,1.30
2022-10-02T01:28:59.053Z,1.98
2022-10-02T01:31:31.065Z,1.63
2022-10-02T01:33:59.902Z,1.50
2022-10-02T01:36:28.933Z,1.45
2022-10-02T01:38:57.976Z,1.60
2022-10-02T01:41:26.262Z,2.53
2022-10-02T01:43:59.115Z,2.47
2022-10-02T01:46:37.004Z,1.48
2022-10-02T01:49:15.739Z,1.50
2022-10-02T01:51:59.034Z,2.00
2022-10-02T01:54:38.843Z,2.38
2022-10-02T01:57:15.359Z,1.65
2022-10-02T01:59:58.188Z,1.65
2022-10-02T02:02:35.356Z,1.80
2022-10-02T02:05:11.226Z,1.73
2022-10-02T02:07:50.290Z,3.15
2022-10-02T02:10:26.665Z,1.95
2022-10-02T02:13:00.833Z,1.83
2022-10-02T02:15:39.639Z,2.45
2022-10-02T02:18:14.982Z,2.80
2022-10-02T02:20:48.318Z,1.83
2022-10-02T02:23:21.214Z,1.95
2022-10-02T02:25:52.305Z,2.00
2022-10-02T02:28:22.656Z,2.90
2022-10-02T02:30:55.784Z,2.22
2022-10-02T02:33:29.132Z,2.35
2022-10-02T02:36:01.004Z,2.55
2022-10-02T02:38:32.842Z,2.40
2022-10-02T02:41:06.049Z,2.42
2022-10-02T02:43:40.045Z,2.72
2022-10-02T02:46:15.491Z,2.33
2022-10-02T02:48:49.705Z,2.97
2022-10-02T02:51:22.263Z,2.60
2022-10-02T02:53:55.265Z,3.55
2022-10-02T02:56:23.725Z,3.13
2022-10-02T02:58:56.232Z,3.33
2022-10-02T03:01:25.852Z,4.03
2022-10-02T03:03:53.883Z,2.72
2022-10-02T03:06:34.388Z,3.13
2022-10-02T03:09:03.467Z,3.25
2022-10-02T03:11:46.989Z,3.05
2022-10-02T03:14:37.663Z,3.60
2022-10-02T03:17:16.855Z,2.92
2022-10-02T03:19:49.146Z,3.72
2022-10-02T03:22:22.769Z,3.47
2022-10-02T03:24:55.954Z,3.67
2022-10-02T03:27:35.018Z,3.63
2022-10-02T03:30:07.874Z,2.97
2022-10-02T03:32:39.019Z,3.90
2022-10-02T03:35:11.553Z,2.88
2022-10-02T03:37:41.782Z,2.97
2022-10-02T03:40:10.524Z,3.22
2022-10-02T03:42:38.714Z,4.53
2022-10-02T03:45:07.745Z,3.28
2022-10-02T03:47:37.148Z,3.88
2022-10-02T03:50:05.767Z,3.65
2022-10-02T03:52:35.909Z,3.20
2022-10-02T03:55:06.523Z,3.90
2022-10-02T03:57:35.794Z,3.40
2022-10-02T04:00:08.642Z,3.35
2022-10-02T04:02:43.397Z,3.78
2022-10-02T04:05:21.710Z,3.65
2022-10-02T04:07:55.850Z,4.38
2022-10-02T04:10:30.726Z,3.78
2022-10-02T04:13:05.340Z,4.68
2022-10-02T04:15:40.487Z,3.85
2022-10-02T04:18:18.517Z,4.20
2022-10-02T04:20:52.056Z,4.03
2022-10-02T04:23:24.716Z,4.10
2022-10-02T04:25:56.360Z,3.80
2022-10-02T04:28:28.672Z,4.78
2022-10-02T04:30:57.016Z,3.97
2022-10-02T04:33:27.261Z,3.65
2022-10-02T04:36:08.967Z,2.92
2022-10-02T04:39:08.361Z,4.13
2022-10-02T04:42:03.481Z,4.05
2022-10-02T04:44:45.163Z,4.28
2022-10-02T04:47:44.601Z,4.57
2022-10-02T04:50:25.157Z,3.58
2022-10-02T04:53:12.217Z,4.82
2022-10-02T04:55:53.160Z,4.95
2022-10-02T04:58:41.130Z,4.35
2022-10-02T05:01:18.716Z,4.95
2022-10-02T05:04:20.551Z,4.80
2022-10-02T05:07:05.493Z,4.45
2022-10-02T05:09:40.180Z,4.55
2022-10-02T05:12:20.773Z,4.25
2022-10-02T05:15:21.974Z,4.93
2022-10-02T05:18:03.346Z,4.25
2022-10-02T05:20:58.797Z,4.85
2022-10-02T05:23:45.653Z,4.88
2022-10-02T05:26:54.289Z,5.25
2022-10-02T05:29:35.565Z,4.38
2022-10-02T05:32:26.960Z,6.05
2022-10-02T05:35:13.764Z,5.05
2022-10-02T05:37:53.947Z,4.90
2022-10-02T05:40:27.413Z,4.72
2022-10-02T05:43:03.184Z,5.50
2022-10-02T05:45:36.313Z,5.18
2022-10-02T05:48:09.568Z,4.45
2022-10-02T05:50:39.720Z,4.60
2022-10-02T05:53:17.360Z,4.60
2022-10-02T05:55:50.805Z,4.25
2022-10-02T05:58:24.452Z,4.78
2022-10-02T06:00:58.233Z,4.28
2022-10-02T06:03:35.025Z,3.83
2022-10-02T06:06:11.230Z,5.22
2022-10-02T06:08:44.351Z,4.30
2022-10-02T06:11:19.886Z,4.95
2022-10-02T06:13:53.198Z,5.00
2022-10-02T06:16:25.366Z,4.50
2022-10-02T06:18:58.400Z,3.80
2022-10-02T06:21:34.064Z,4.65
2022-10-02T06:24:07.089Z,5.13
2022-10-02T06:26:43.617Z,5.07
2022-10-02T06:29:20.628Z,4.97
2022-10-02T06:31:59.044Z,4.03
2022-10-02T06:34:28.124Z,4.82
2022-10-02T06:37:18.452Z,5.22
2022-10-02T06:40:04.583Z,4.00
2022-10-02T06:42:47.185Z,4.88
2022-10-02T06:45:24.511Z,5.05
2022-10-02T06:48:03.025Z,4.80
2022-10-02T06:50:43.045Z,8.82
2022-10-02T06:53:35.967Z,4.18
2022-10-02T06:56:16.390Z,5.85
2022-10-02T06:59:00.584Z,5.45
2022-10-02T07:01:42.863Z,4.05
2022-10-02T07:04:51.271Z,4.57
2022-10-02T07:07:34.061Z,4.60
2022-10-02T07:10:10.586Z,4.50
2022-10-02T07:13:02.943Z,4.80
2022-10-02T07:15:58.127Z,4.45
2022-10-02T07:18:37.767Z,4.00
2022-10-02T07:21:11.133Z,3.90
2022-10-02T07:23:51.960Z,4.30
2022-10-02T07:26:39.427Z,4.72
2022-10-02T07:29:18.823Z,4.72
2022-10-02T07:31:59.994Z,4.80
2022-10-02T07:34:36.516Z,3.92
2022-10-02T07:37:13.700Z,3.85
2022-10-02T07:39:54.529Z,3.55
2022-10-02T07:42:41.706Z,3.80
2022-10-02T07:45:30.997Z,4.13
2022-10-02T07:48:26.185Z,4.65
2022-10-02T07:51:27.621Z,3.38
2022-10-02T07:54:05.140Z,3.45
2022-10-02T07:56:35.456Z,3.20
2022-10-02T07:59:10.752Z,3.75
2022-10-02T08:01:41.776Z,3.70
2022-10-02T08:04:16.201Z,4.38
2022-10-02T08:06:47.179Z,4.35
2022-10-02T08:09:21.809Z,3.60
2022-10-02T08:11:55.031Z,3.92
2022-10-02T08:14:27.213Z,3.90
2022-10-02T08:16:59.143Z,3.70
2022-10-02T08:19:36.135Z,3.05
2022-10-02T08:22:10.148Z,3.40
2022-10-02T08:24:42.187Z,3.45
2022-10-02T08:27:16.383Z,3.53
2022-10-02T08:29:47.971Z,2.78
2022-10-02T08:32:16.257Z,3.00
2022-10-02T08:34:45.835Z,3.28
2022-10-02T08:37:29.923Z,2.83
2022-10-02T08:40:43.100Z,2.97
2022-10-02T08:43:50.286Z,2.97
2022-10-02T08:46:58.389Z,3.28
2022-10-02T08:49:49.227Z,2.58
2022-10-02T08:52:42.032Z,3.42
2022-10-02T08:55:44.395Z,3.15
2022-10-02T08:58:57.953Z,2.85
2022-10-02T09:01:59.743Z,2.55
2022-10-02T09:05:13.102Z,2.83
2022-10-02T09:08:23.962Z,2.45
2022-10-02T09:11:32.583Z,2.60
2022-10-02T09:14:43.760Z,2.65
2022-10-02T09:17:40.934Z,3.35
2022-10-02T09:20:42.378Z,2.80
2022-10-02T09:23:55.198Z,2.53
2022-10-02T09:26:37.648Z,2.67
2022-10-02T09:29:54.316Z,2.60
2022-10-02T09:33:13.818Z,1.98
2022-10-02T09:36:19.053Z,2.78
2022-10-02T09:39:15.221Z,2.65
2022-10-02T09:42:26.445Z,2.40
2022-10-02T09:45:28.657Z,2.35
2022-10-02T09:48:45.250Z,2.03
2022-10-02T09:51:42.866Z,3.60
2022-10-02T09:54:45.425Z,2.67
2022-10-02T09:57:53.983Z,3.63
2022-10-02T10:00:32.969Z,3.05
2022-10-02T10:03:40.737Z,2.80
2022-10-02T10:06:28.380Z,2.72
2022-10-02T10:09:35.142Z,3.33
2022-10-02T10:12:29.799Z,3.88
2022-10-02T10:15:43.444Z,2.88
2022-10-02T10:18:42.933Z,2.20
2022-10-02T10:21:48.054Z,2.90
2022-10-02T10:24:43.605Z,2.08
2022-10-02T10:27:34.735Z,2.58
2022-10-02T10:30:29.840Z,2.65
2022-10-02T10:33:42.356Z,2.30
2022-10-02T10:36:52.965Z,2.05
2022-10-02T10:39:54.425Z,2.75
2022-10-02T10:43:07.600Z,2.70
2022-10-02T10:45:48.042Z,2.10
2022-10-02T10:48:35.478Z,2.40
2022-10-02T10:51:35.862Z,1.90
2022-10-02T10:54:25.911Z,1.95
2022-10-02T10:56:57.994Z,2.13
2022-10-02T11:00:10.362Z,2.42
2022-10-02T11:03:18.701Z,2.50
2022-10-02T11:06:46.196Z,1.70
2022-10-02T11:09:57.052Z,1.95
2022-10-02T11:12:52.482Z,2.03
2022-10-02T11:15:32.696Z,1.80
2022-10-02T11:18:17.093Z,2.25
2022-10-02T11:21:12.633Z,1.80
2022-10-02T11:24:18.432Z,1.80
2022-10-02T11:27:16.205Z,1.55
2022-10-02T11:30:05.163Z,1.60
2022-10-02T11:33:05.074Z,1.67
2022-10-02T11:36:15.659Z,1.70
2022-10-02T11:39:07.425Z,1.52
2022-10-02T11:42:05.904Z,1.83
2022-10-02T11:44:48.491Z,1.58
2022-10-02T11:47:36.247Z,1.60
2022-10-02T11:50:31.145Z,1.40
2022-10-02T11:53:26.354Z,1.65
2022-10-02T11:56:08.739Z,1.63
2022-10-02T11:58:49.549Z,1.48
2022-10-02T12:01:28.108Z,1.27
2022-10-02T12:04:10.335Z,1.60
2022-10-02T12:07:00.839Z,1.40
2022-10-02T12:09:40.130Z,1.60
2022-10-02T12:12:26.989Z,1.40
2022-10-02T12:15:03.257Z,1.17
2022-10-02T12:17:53.233Z,1.45
2022-10-02T12:20:47.002Z,1.73
2022-10-02T12:23:48.733Z,1.52
2022-10-02T12:26:51.384Z,1.42
2022-10-02T12:29:26.616Z,1.40
2022-10-02T12:32:01.529Z,1.52
2022-10-02T12:34:40.842Z,1.40
2022-10-02T12:37:16.545Z,1.13
2022-10-02T12:39:54.910Z,1.83
2022-10-02T12:43:02.259Z,1.23
2022-10-02T12:45:59.796Z,1.40
2022-10-02T12:49:00.010Z,1.30
2022-10-02T12:51:37.262Z,1.35
2022-10-02T12:54:40.493Z,1.08
2022-10-02T12:57:48.577Z,1.77
2022-10-02T13:00:18.491Z,1.30
2022-10-02T13:03:29.123Z,1.27
2022-10-02T13:06:22.783Z,1.42
2022-10-02T13:09:15.317Z,1.25
2022-10-02T13:11:56.186Z,1.50
2022-10-02T13:14:53.137Z,1.73
2022-10-02T13:17:31.494Z,1.02
2022-10-02T13:20:13.827Z,1.05
2022-10-02T13:22:52.918Z,1.05
2022-10-02T13:25:35.001Z,1.10
2022-10-02T13:28:19.334Z,1.77
2022-10-02T13:30:57.982Z,1.42
2022-10-02T13:33:43.889Z,0.93
2022-10-02T13:36:20.155Z,1.15
2022-10-02T13:39:05.213Z,1.20
2022-10-02T13:41:48.763Z,1.10
2022-10-02T13:44:28.555Z,1.02
2022-10-02T13:47:13.683Z,1.08
2022-10-02T13:49:59.067Z,0.90
2022-10-02T13:52:34.051Z,0.90
2022-10-02T13:55:20.133Z,1.45
2022-10-02T13:58:05.266Z,1.45
2022-10-02T14:00:59.116Z,0.80
2022-10-02T14:03:54.521Z,1.38
2022-10-02T14:06:28.449Z,0.90
2022-10-02T14:09:19.128Z,1.58
2022-10-02T14:11:59.550Z,0.93
2022-10-02T14:14:42.940Z,0.98
2022-10-02T14:17:27.483Z,0.95
2022-10-02T14:20:17.518Z,0.80
2022-10-02T14:23:00.405Z,1.20
2022-10-02T14:25:43.629Z,1.00
2022-10-02T14:28:49.037Z,1.38
2022-10-02T14:31:51.470Z,1.08
2022-10-02T14:34:40.568Z,0.93
2022-10-02T14:37:55.347Z,2.65
2022-10-02T14:40:30.339Z,1.13
2022-10-02T14:43:14.852Z,1.05
2022-10-02T14:46:08.061Z,1.13
2022-10-02T14:48:56.812Z,1.33
2022-10-02T14:51:38.572Z,0.70
2022-10-02T14:54:33.495Z,0.95
2022-10-02T14:57:23.267Z,1.10
2022-10-02T15:00:13.769Z,0.80
2022-10-02T15:03:11.098Z,0.90
2022-10-02T15:06:17.587Z,0.80
2022-10-02T15:08:51.262Z,0.90
2022-10-02T15:11:26.597Z,0.60
2022-10-02T15:14:02.302Z,0.95
2022-10-02T15:17:01.628Z,1.10
2022-10-02T15:19:36.731Z,0.88
2022-10-02T15:22:19.375Z,0.68
2022-10-02T15:24:50.870Z,0.52
2022-10-02T15:27:24.507Z,1.00
2022-10-02T15:30:06.816Z,0.93
2022-10-02T15:32:48.436Z,0.73
2022-10-02T15:35:36.279Z,1.02
2022-10-02T15:38:26.147Z,0.80
2022-10-02T15:41:18.970Z,0.80
2022-10-02T15:44:03.224Z,0.93
2022-10-02T15:46:37.512Z,0.98
2022-10-02T15:49:13.190Z,0.80
2022-10-02T15:52:00.966Z,1.23
2022-10-02T15:54:45.662Z,1.25
2022-10-02T15:57:30.491Z,1.52
2022-10-02T16:00:16.876Z,1.05
2022-10-02T16:03:16.097Z,0.73
2022-10-02T16:05:58.159Z,0.90
2022-10-02T16:08:44.066Z,0.98
2022-10-02T16:11:33.841Z,1.17
2022-10-02T16:14:08.683Z,1.13
2022-10-02T16:17:24.214Z,0.80
2022-10-02T16:20:26.120Z,0.98
2022-10-02T16:23:06.692Z,1.10
2022-10-02T16:25:56.600Z,0.80
2022-10-02T16:28:36.847Z,1.20
2022-10-02T16:31:25.983Z,1.08
2022-10-02T16:34:02.474Z,1.13
2022-10-02T16:36:41.250Z,1.20
2022-10-02T16:39:25.404Z,0.98
2022-10-02T16:42:03.230Z,1.00
2022-10-02T16:45:02.627Z,0.90
2022-10-02T16:47:36.905Z,1.20
2022-10-02T16:50:17.299Z,0.85
2022-10-02T16:52:51.113Z,4.43
2022-10-02T16:55:25.576Z,1.00
2022-10-02T16:58:09.426Z,1.17
2022-10-02T17:00:50.720Z,1.00
2022-10-02T17:03:29.184Z,1.10
2022-10-02T17:06:06.810Z,1.20
2022-10-02T17:08:42.529Z,1.20
2022-10-02T17:11:20.330Z,1.10
2022-10-02T17:14:04.108Z,2.00
2022-10-02T17:16:37.976Z,1.20
2022-10-02T17:19:21.307Z,1.40
2022-10-02T17:21:55.285Z,1.15
2022-10-02T17:24:44.825Z,1.35
2022-10-02T17:27:28.112Z,1.55
2022-10-02T17:30:03.938Z,1.50
2022-10-02T17:32:39.485Z,1.20
2022-10-02T17:35:16.982Z,1.40
2022-10-02T17:38:06.630Z,1.33
2022-10-02T17:40:41.065Z,1.20
2022-10-02T17:43:18.524Z,1.63
2022-10-02T17:45:58.296Z,1.38
2022-10-02T17:48:46.071Z,1.27
2022-10-02T17:55:00.946Z,1.48
2022-10-02T17:57:42.266Z,1.38
2022-10-02T18:00:14.619Z,1.77
2022-10-02T18:03:11.003Z,1.75
2022-10-02T18:05:51.736Z,1.67
2022-10-02T18:08:43.109Z,2.08
2022-10-02T18:11:31.146Z,1.80
2022-10-02T18:14:12.004Z,2.40
2022-10-02T18:16:55.506Z,1.42
2022-10-02T18:19:33.501Z,1.60
2022-10-02T18:22:37.795Z,1.65
2022-10-02T18:25:27.537Z,1.50
2022-10-02T18:28:15.745Z,1.50
2022-10-02T18:30:49.155Z,1.80
2022-10-02T18:33:40.951Z,1.90
2022-10-02T18:36:25.064Z,1.65
2022-10-02T18:38:59.665Z,1.77
2022-10-02T18:41:45.930Z,1.77
2022-10-02T18:44:33.575Z,1.70
2022-10-02T18:47:13.076Z,1.90
2022-10-02T18:49:54.700Z,2.50
2022-10-02T18:52:44.260Z,2.17
2022-10-02T18:55:25.934Z,1.60
2022-10-02T18:58:07.523Z,2.00
2022-10-02T19:01:15.738Z,2.65
2022-10-02T19:04:18.479Z,2.03
2022-10-02T19:06:54.372Z,2.17
2022-10-02T19:09:27.115Z,1.90
2022-10-02T19:11:57.883Z,2.20
2022-10-02T19:14:35.136Z,2.00
2022-10-02T19:17:08.793Z,2.50
2022-10-02T19:19:36.976Z,1.77
2022-10-02T19:22:16.241Z,2.10
2022-10-02T19:24:47.219Z,2.38
2022-10-02T19:27:23.230Z,2.13
2022-10-02T19:29:56.386Z,2.40
2022-10-02T19:32:30.228Z,2.50
2022-10-02T19:35:04.001Z,2.50
2022-10-02T19:37:34.405Z,1.90
2022-10-02T19:40:04.625Z,2.17
2022-10-02T19:42:41.940Z,2.42
2022-10-02T19:45:25.489Z,2.13
2022-10-02T19:47:59.744Z,1.80
2022-10-02T19:50:37.600Z,2.13
2022-10-02T19:53:08.664Z,1.95
2022-10-02T19:55:40.566Z,1.80
2022-10-02T19:58:15.751Z,1.92
2022-10-02T20:00:44.347Z,1.90
2022-10-02T20:03:18.589Z,2.00
2022-10-02T20:05:47.821Z,2.33
2022-10-02T20:08:20.372Z,1.80
2022-10-02T20:10:58.002Z,1.98
2022-10-02T20:13:36.268Z,1.88
2022-10-02T20:16:28.465Z,2.03
2022-10-02T20:18:57.904Z,1.80
2022-10-02T20:21:37.069Z,1.67
2022-10-02T20:24:09.094Z,2.00
2022-10-02T20:26:41.927Z,2.03
2022-10-02T20:29:15.604Z,2.50
2022-10-02T20:31:49.677Z,2.78
2022-10-02T20:34:26.440Z,1.92
2022-10-02T20:36:59.796Z,1.58
2022-10-02T20:39:34.848Z,2.03
2022-10-02T20:42:09.687Z,2.20
2022-10-02T20:44:39.252Z,2.10
2022-10-02T20:47:44.046Z,1.80
2022-10-02T20:50:27.797Z,2.17
2022-10-02T20:53:23.256Z,2.05
2022-10-02T20:55:58.951Z,1.80
2022-10-02T20:58:59.580Z,2.17
2022-10-02T21:01:40.600Z,1.88
2022-10-02T21:04:50.466Z,1.98
2022-10-02T21:07:52.212Z,1.73
2022-10-02T21:10:49.876Z,1.95
2022-10-02T21:13:45.236Z,2.15
2022-10-02T21:16:46.836Z,1.80
2022-10-02T21:19:48.443Z,2.17
2022-10-02T21:23:07.809Z,1.95
2022-10-02T21:26:19.539Z,1.90
2022-10-02T21:29:15.940Z,1.77
2022-10-02T21:32:04.886Z,1.75
2022-10-02T21:34:49.986Z,2.10
2022-10-02T21:37:27.064Z,2.40
2022-10-02T21:40:48.546Z,2.13
2022-10-02T21:43:53.682Z,2.35
2022-10-02T21:47:04.228Z,2.30
2022-10-02T21:50:11.894Z,2.15
2022-10-02T21:53:17.441Z,1.75
2022-10-02T21:56:26.119Z,1.85
2022-10-02T21:59:41.995Z,1.92
2022-10-02T22:02:43.552Z,1.85
2022-10-02T22:05:29.708Z,2.55
2022-10-02T22:08:08.073Z,2.65
2022-10-02T22:10:45.119Z,1.88
2022-10-02T22:13:23.529Z,2.58
2022-10-02T22:16:04.332Z,2.10
2022-10-02T22:18:46.295Z,1.80
2022-10-02T22:21:44.199Z,1.83
2022-10-02T22:24:41.602Z,1.40
2022-10-02T22:27:25.835Z,2.38
2022-10-02T22:29:55.707Z,2.75
2022-10-02T22:33:09.229Z,1.95
2022-10-02T22:36:03.977Z,1.90
2022-10-02T22:38:35.398Z,1.83
2022-10-02T22:41:09.633Z,1.83
2022-10-02T22:43:46.006Z,1.75
2022-10-02T22:46:25.632Z,1.80
2022-10-02T22:49:02.199Z,2.13
2022-10-02T22:51:39.057Z,2.03
2022-10-02T22:54:19.327Z,2.30
2022-10-02T22:56:54.573Z,2.10
2022-10-02T22:59:30.749Z,1.80
2022-10-02T23:02:07.764Z,1.98
2022-10-02T23:04:41.555Z,1.85
2022-10-02T23:07:17.092Z,2.10
2022-10-02T23:09:51.640Z,1.85
2022-10-02T23:12:27.984Z,1.85
2022-10-02T23:15:24.838Z,1.63
2022-10-02T23:17:57.074Z,1.30
2022-10-02T23:20:30.230Z,1.50
2022-10-02T23:23:04.393Z,2.30
2022-10-02T23:25:36.882Z,1.90
2022-10-02T23:28:11.136Z,1.40
2022-10-02T23:30:45.816Z,1.67
2022-10-02T23:33:23.542Z,1.90
2022-10-02T23:35:57.319Z,1.48
2022-10-02T23:38:35.877Z,2.15
2022-10-02T23:41:26.489Z,1.55
2022-10-02T23:44:07.280Z,2.40
2022-10-02T23:46:42.236Z,1.65
2022-10-02T23:49:12.899Z,1.67
2022-10-02T23:51:53.348Z,2.42
2022-10-02T23:54:35.402Z,1.40
2022-10-02T23:57:29.827Z,1.50
